Latest Weather Observations for Kingaroy

IDQ60801

Issued at 11:02 am EST Tuesday 14 July 2020 (issued every 10 minutes, with the page automatically refreshed every 10 minutes)

About weather observations | Map of weather stations | Latest weather observations for QLD | Other Formats
Station Details ID: 040922 Name: KINGAROY AIRPORT Lat: -26.57 Lon: 151.84 Height: 433.67 m
Data from the previous 72 hours. | See also: Recent months at Kingaroy
Date/Time
EST
Temp
°C
App
Temp
°C
Dew
Point
°C
Rel
Hum
%
Delta-T
°C
Wind Press
QNH
hPa
Press
MSL
hPa
Rain since
9am
mm
Dir  Spd
km/h
Gust
km/h
Spd
kts
Gust
kts
14/11:00am 12.8 6.3 2.6 50 4.6 W 26 41 14 22 1019.7 1019.6 0.0
14/10:30am 12.1 5.0 3.3 55 4.0 WSW 30 43 16 23 1020.1 1020.0 0.0
14/10:00am 10.8 4.4 3.1 59 3.4 WSW 26 50 14 27 1020.5 1020.4 0.0
14/09:30am 10.4 5.3 3.9 64 2.9 WSW 20 28 11 15 1020.9 1020.8 0.0
14/09:00am 9.4 4.4 4.4 71 2.3 SW 20 33 11 18 1020.8 1020.7 0.0
14/08:30am 8.2 4.2 4.8 79 1.5 WSW 15 20 8 11 1020.8 1020.7 0.0
14/08:00am 6.5 4.0 6.4 99 0.0 WSW 9 15 5 8 1020.6 1020.5 0.0
14/07:30am 1.7 -0.8 1.6 99 0.0 SE 4 6 2 3 1020.6 1020.5 0.0
14/07:00am 0.8 -2.5 0.2 96 0.2 SSE 7 7 4 4 1020.5 1020.4 0.0
14/06:30am 1.5 -1.5 0.9 96 0.2 SW 6 9 3 5 1020.2 1020.1 0.0
14/06:00am 1.5 -1.7 -0.4 87 0.7 WSW 6 7 3 4 1019.9 1019.8 0.0
14/05:30am 4.3 0.6 2.5 88 0.7 WSW 11 15 6 8 1019.5 1019.4 0.0
14/05:00am 4.1 0.5 3.1 93 0.4 WSW 11 15 6 8 1019.2 1019.0 0.0
14/04:30am 1.0 -0.8 0.9 99 0.0 CALM 0 0 0 0 1019.1 1018.9 0.0
14/04:00am 1.2 -0.6 0.9 98 0.1 CALM 0 6 0 3 1019.1 1018.9 0.0
14/03:30am 1.3 -0.6 0.7 96 0.2 CALM 0 0 0 0 1019.1 1018.9 0.0
14/03:00am 2.3 0.6 1.9 97 0.2 CALM 0 0 0 0 1019.1 1018.9 0.0
14/02:30am 1.9 -0.7 1.2 95 0.3 NNW 4 7 2 4 1019.1 1018.9 0.0
14/02:00am 2.6 0.1 1.6 93 0.4 NNE 4 7 2 4 1019.1 1018.9 0.0
14/01:30am 2.2 -0.4 0.9 91 0.5 NE 4 6 2 3 1019.5 1019.4 0.0
14/01:00am 2.1 -0.9 0.9 92 0.5 ENE 6 7 3 4 1019.8 1019.7 0.0
14/12:30am 2.1 -0.2 0.5 89 0.6 NE 2 6 1 3 1020.1 1020.0 0.0
14/12:00am 3.0 0.7 0.2 82 1.1 E 2 7 1 4 1020.3 1020.2 0.0
 
Date/Time
EST
Temp
°C
App
Temp
°C
Dew
Point
°C
Rel
Hum
%
Delta-T
°C
Wind Press
QNH
hPa
Press
MSL
hPa
Rain since
9am
mm
Dir  Spd
km/h
Gust
km/h
Spd
kts
Gust
kts
13/11:30pm 6.7 2.9 1.8 71 2.0 WSW 11 15 6 8 1020.5 1020.4 0.0
13/11:00pm 6.9 3.1 1.6 69 2.2 WSW 11 13 6 7 1020.9 1020.8 0.0
13/10:30pm 6.1 2.6 1.1 70 2.0 SW 9 13 5 7 1020.8 1020.7 0.0
13/10:00pm 7.2 3.7 1.5 67 2.4 WSW 9 11 5 6 1020.8 1020.7 0.0
13/09:30pm 7.3 4.2 1.4 66 2.4 WSW 7 11 4 6 1021.1 1021.0 0.0
13/09:00pm 8.2 4.8 1.8 64 2.7 WSW 9 11 5 6 1021.1 1021.0 0.0
13/08:30pm 8.2 5.1 1.6 63 2.8 WSW 7 9 4 5 1020.9 1020.8 0.0
13/08:00pm 9.0 5.2 1.9 61 3.0 WSW 11 13 6 7 1020.7 1020.6 0.0
13/07:30pm 9.2 6.4 1.9 60 3.1 WSW 6 7 3 4 1020.5 1020.4 0.0
13/07:00pm 10.3 7.3 2.2 57 3.5 WSW 7 11 4 6 1020.1 1020.0 0.0
13/06:30pm 11.1 7.4 2.2 54 3.9 SW 11 15 6 8 1019.6 1019.5 0.0
13/06:00pm 11.8 7.7 2.0 51 4.3 WSW 13 19 7 10 1019.3 1019.1 0.0
13/05:30pm 12.6 8.4 1.6 47 4.8 WSW 13 19 7 10 1018.6 1018.5 0.0
13/05:00pm 13.7 9.1 1.4 43 5.4 WSW 15 22 8 12 1018.1 1018.0 0.0
13/04:30pm 15.0 9.6 1.5 40 6.0 WSW 19 28 10 15 1017.8 1017.7 0.0
13/04:00pm 15.5 9.2 1.6 39 6.2 WSW 24 33 13 18 1017.7 1017.6 0.0
13/03:30pm 16.2 10.8 1.5 37 6.6 W 19 30 10 16 1017.5 1017.4 0.0
13/03:00pm 16.5 11.1 2.2 38 6.6 W 20 32 11 17 1017.4 1017.3 0.0
13/02:30pm 16.3 10.3 1.2 36 6.8 W 22 35 12 19 1017.3 1017.1 0.0
13/02:00pm 16.4 9.9 2.4 39 6.4 W 26 39 14 21 1017.3 1017.1 0.0
13/01:30pm 17.0 11.7 1.8 36 7.0 SW 19 32 10 17 1017.2 1017.0 0.0
13/01:00pm 17.0 11.3 2.6 38 6.7 SW 22 33 12 18 1017.2 1017.0 0.0
13/12:30pm 16.7 11.5 3.4 41 6.3 WSW 20 32 11 17 1017.7 1017.6 0.0
13/12:00pm 16.0 10.9 3.1 42 6.0 WSW 19 28 10 15 1018.2 1018.1 0.0
13/11:30am 15.6 10.4 2.7 42 5.9 SW 19 30 10 16 1018.6 1018.5 0.0
13/11:00am 16.1 12.0 4.5 46 5.6 WSW 15 26 8 14 1019.0 1018.8 0.0
13/10:30am 13.9 11.1 5.3 56 4.1 WSW 9 13 5 7 1019.3 1019.1 0.0
13/10:00am 13.5 9.9 4.9 56 4.1 SW 13 20 7 11 1019.5 1019.4 0.0
13/09:30am 12.8 8.6 5.5 61 3.5 SSW 17 22 9 12 1019.6 1019.5 0.0
13/09:00am 12.0 8.7 6.3 68 2.8 WSW 13 17 7 9 1019.5 1019.4 4.2
13/08:30am 10.0 9.6 8.3 89 0.8 CALM 0 6 0 3 1019.7 1019.6 4.2
13/08:00am 10.3 8.5 7.0 80 1.6 SSW 6 7 3 4 1019.4 1019.3 4.2
13/07:30am 8.7 7.7 7.5 92 0.6 SW 2 6 1 3 1019.0 1018.8 4.2
13/07:00am 8.7 6.6 6.8 88 0.9 S 7 9 4 5 1018.5 1018.4 4.2
13/06:30am 8.7 5.9 6.8 88 0.9 SSW 11 15 6 8 1018.2 1018.1 4.2
13/06:00am 8.9 6.5 7.0 88 0.9 SSW 9 11 5 6 1018.0 1017.9 4.2
13/05:30am 9.0 6.3 7.5 90 0.7 SSW 11 13 6 7 1017.7 1017.6 4.2
13/05:00am 8.8 6.6 7.7 93 0.5 SSW 9 13 5 7 1017.5 1017.4 4.2
13/04:30am 9.1 6.1 7.7 91 0.7 S 13 15 7 8 1017.4 1017.3 4.2
13/04:00am 10.0 6.7 8.1 88 0.9 SSW 15 19 8 10 1017.4 1017.3 4.2
13/03:30am 10.4 7.2 8.5 88 1.0 S 15 19 8 10 1017.6 1017.5 4.2
13/03:00am 10.8 7.9 9.7 93 0.6 S 15 17 8 9 1017.6 1017.5 4.2
13/02:43am 11.1 8.0 10.3 95 0.4 S 17 20 9 11 1017.5 1017.4 4.2
13/02:41am 11.1 8.1 10.5 96 0.3 S 17 20 9 11 1017.5 1017.4 4.2
13/02:30am 11.1 8.9 10.9 99 0.1 SSE 13 20 7 11 1017.4 1017.3 4.2
13/02:00am 11.2 10.4 11.0 99 0.1 NNE 6 7 3 4 1017.4 1017.3 4.2
13/01:30am 11.4 11.8 11.2 99 0.1 CALM 0 0 0 0 1017.5 1017.4 4.2
13/01:00am 11.4 11.8 11.2 99 0.1 CALM 0 0 0 0 1017.5 1017.4 4.2
13/12:30am 11.3 11.7 11.1 99 0.1 CALM 0 0 0 0 1017.5 1017.4 4.2
13/12:00am 11.4 11.8 11.2 99 0.1 CALM 0 0 0 0 1018.0 1017.9 4.2
 
Date/Time
EST
Temp
°C
App
Temp
°C
Dew
Point
°C
Rel
Hum
%
Delta-T
°C
Wind Press
QNH
hPa
Press
MSL
hPa
Rain since
9am
mm
Dir  Spd
km/h
Gust
km/h
Spd
kts
Gust
kts
12/11:30pm 11.7 12.2 11.5 99 0.1 CALM 0 0 0 0 1017.8 1017.7 4.2
12/11:00pm 11.8 12.3 11.6 99 0.1 CALM 0 0 0 0 1017.9 1017.8 4.2
12/10:30pm 12.0 12.6 11.8 99 0.1 CALM 0 0 0 0 1018.0 1017.9 4.2
12/10:12pm 12.3 13.0 12.1 99 0.1 CALM 0 0 0 0 1018.0 1017.9 4.2
12/10:00pm 12.2 12.8 12.0 99 0.1 CALM 0 0 0 0 1018.1 1018.0 4.2
12/09:42pm 12.5 13.2 12.3 99 0.1 CALM 0 0 0 0 1018.1 1018.0 4.2
12/09:30pm 12.6 13.4 12.4 99 0.1 CALM 0 0 0 0 1018.0 1017.9 4.2
12/09:00pm 12.8 13.6 12.6 99 0.1 CALM 0 0 0 0 1018.0 1017.9 4.2
12/08:57pm 12.7 13.5 12.5 99 0.1 CALM 0 0 0 0 1018.0 1017.9 4.2
12/08:30pm 12.7 13.5 12.5 99 0.1 CALM 0 0 0 0 1018.0 1017.9 4.2
12/08:15pm 12.8 13.6 12.6 99 0.1 CALM 0 0 0 0 1017.9 1017.8 4.2
12/08:00pm 12.8 13.6 12.6 99 0.1 CALM 0 0 0 0 1017.9 1017.8 4.2
12/07:30pm 12.9 13.7 12.7 99 0.1 CALM 0 4 0 2 1017.8 1017.7 4.2
12/07:00pm 13.0 13.9 12.8 99 0.1 CALM 0 0 0 0 1017.4 1017.3 4.2
12/06:30pm 13.0 12.7 12.8 99 0.1 N 6 9 3 5 1017.2 1017.0 4.2
12/06:00pm 13.3 12.6 13.1 99 0.1 NNE 9 9 5 5 1016.9 1016.7 4.0
12/05:30pm 13.6 14.7 13.4 99 0.1 CALM 0 0 0 0 1016.7 1016.5 2.4
12/05:00pm 13.7 13.7 13.5 99 0.1 NW 6 6 3 3 1016.7 1016.5 2.4
12/04:49pm 13.7 13.7 13.5 99 0.1 WNW 6 7 3 4 1016.6 1016.4 2.4
12/04:34pm 13.7 14.0 13.5 99 0.1 WNW 4 9 2 5 1016.8 1016.6 2.4
12/04:30pm 13.7 14.8 13.5 99 0.1 CALM 0 7 0 4 1016.7 1016.5 2.4
12/04:00pm 13.7 13.5 13.5 99 0.1 NW 7 9 4 5 1016.6 1016.4 2.2
12/03:51pm 13.7 13.1 13.5 99 0.1 NW 9 13 5 7 1016.5 1016.3 2.2
12/03:30pm 13.9 13.9 13.7 99 0.1 WNW 6 7 3 4 1016.4 1016.2 2.0
12/03:23pm 13.9 13.8 13.4 97 0.3 W 6 9 3 5 1016.4 1016.2 1.8
12/03:00pm 14.1 13.9 13.1 94 0.6 WNW 6 7 3 4 1016.4 1016.2 1.2
12/02:30pm 14.1 15.2 13.5 96 0.3 CALM 0 2 0 1 1016.2 1016.1 1.2
12/02:00pm 13.8 13.7 13.2 96 0.3 SW 6 7 3 4 1016.4 1016.2 1.2
12/01:30pm 13.9 14.6 13.3 96 0.3 WSW 2 7 1 4 1016.4 1016.2 1.2
12/01:00pm 13.3 12.9 13.0 98 0.2 SW 7 9 4 5 1016.8 1016.6 1.2
12/12:30pm 13.1 12.2 12.6 97 0.3 WSW 9 11 5 6 1017.1 1016.9 1.2
12/12:20pm 13.2 12.8 12.9 98 0.2 WSW 7 11 4 6 1017.3 1017.1 1.0
12/12:00pm 13.4 11.8 12.8 96 0.3 SW 13 15 7 8 1017.4 1017.3 1.0
12/11:59am 13.4 12.2 12.9 97 0.3 SW 11 15 6 8 1017.5 1017.4 1.0
12/11:32am 13.8 12.5 13.6 99 0.1 WNW 13 15 7 8 1017.9 1017.8 1.0
12/11:30am 13.8 12.5 13.6 99 0.1 WNW 13 15 7 8 1018.0 1017.9 1.0
12/11:16am 13.9 13.4 13.7 99 0.1 NW 9 15 5 8 1017.9 1017.8 0.8
12/11:00am 14.0 14.1 13.8 99 0.1 WNW 6 9 3 5 1018.1 1018.0 0.6
12/10:57am 13.9 13.7 13.7 99 0.1 WNW 7 9 4 5 1018.2 1018.1 0.6
12/10:30am 14.2 12.4 13.4 95 0.5 WSW 15 20 8 11 1018.3 1018.2 0.0
12/10:00am 15.6 15.3 13.4 87 1.3 W 7 11 4 6 1018.1 1018.0 0.0
12/09:39am 14.7 14.6 13.4 92 0.7 WSW 6 7 3 4 1018.1 1018.0 0.0
12/09:30am 14.3 14.0 13.2 93 0.6 WSW 7 9 4 5 1018.1 1018.0 0.0
12/09:00am 14.2 14.3 14.0 99 0.1 WSW 6 7 3 4 1017.9 1017.8 0.0
12/08:30am 13.2 14.2 13.2 100 0.0 CALM 0 0 0 0 1017.6 1017.5 0.0
12/08:00am 11.8 12.0 11.8 100 0.0 ENE 2 7 1 4 1017.7 1017.6 0.0
12/07:30am 9.7 8.9 9.6 99 0.1 SSE 4 6 2 3 1017.7 1017.6 0.0
12/07:00am 8.5 8.1 8.4 99 0.0 CALM 0 0 0 0 1017.4 1017.3 0.0
12/06:30am 9.0 8.8 8.9 99 0.1 CALM 0 0 0 0 1017.1 1016.9 0.0
12/06:00am 8.9 8.6 8.8 99 0.0 CALM 0 0 0 0 1017.0 1016.8 0.0
12/05:30am 8.4 8.0 8.3 99 0.0 CALM 0 0 0 0 1016.9 1016.7 0.0
12/05:19am 8.1 7.6 8.0 99 0.0 CALM 0 0 0 0 1016.9 1016.7 0.0
12/05:08am 8.3 7.9 8.2 99 0.0 CALM 0 0 0 0 1016.7 1016.5 0.0
12/05:00am 8.4 8.0 8.3 99 0.0 CALM 0 0 0 0 1016.7 1016.5 0.0
12/04:30am 8.4 6.3 8.3 99 0.0 ENE 9 11 5 6 1016.4 1016.2 0.0
12/04:00am 8.4 8.0 8.3 99 0.0 CALM 0 0 0 0 1016.8 1016.6 0.0
12/03:30am 8.4 8.0 8.3 99 0.0 CALM 0 0 0 0 1017.0 1016.8 0.0
12/03:00am 8.9 8.6 8.8 99 0.0 CALM 0 0 0 0 1017.1 1016.9 0.0
12/02:37am 9.3 9.0 8.8 97 0.3 CALM 0 0 0 0 1017.1 1016.9 0.0
12/02:36am 9.3 9.0 8.8 97 0.3 CALM 0 0 0 0 1017.1 1016.9 0.0
12/02:31am 9.8 9.7 9.5 98 0.2 CALM 0 0 0 0 1017.1 1016.9 0.0
12/02:30am 9.8 9.7 9.5 98 0.2 CALM 0 0 0 0 1017.1 1016.9 0.0
12/02:00am 10.0 9.8 9.2 95 0.4 CALM 0 0 0 0 1017.3 1017.1 0.0
12/01:47am 10.0 9.1 9.2 95 0.4 ENE 4 7 2 4 1017.4 1017.3 0.0
12/01:30am 10.6 10.4 9.2 91 0.7 CALM 0 0 0 0 1017.6 1017.5 0.0
12/01:00am 12.3 12.9 11.8 97 0.3 CALM 0 0 0 0 1017.9 1017.8 0.0
12/12:30am 12.9 13.7 12.7 99 0.1 CALM 0 0 0 0 1018.3 1018.2 0.0
12/12:00am 12.4 13.1 12.1 98 0.2 CALM 0 0 0 0 1018.6 1018.5 0.0
 
Date/Time
EST
Temp
°C
App
Temp
°C
Dew
Point
°C
Rel
Hum
%
Delta-T
°C
Wind Press
QNH
hPa
Press
MSL
hPa
Rain since
9am
mm
Dir  Spd
km/h
Gust
km/h
Spd
kts
Gust
kts
11/11:30pm 11.5 10.9 10.4 93 0.6 W 4 7 2 4 1018.5 1018.4 0.0
11/11:00pm 13.6 13.4 13.0 96 0.3 NE 6 9 3 5 1018.4 1018.3 0.0
11/10:30pm 13.8 13.3 12.7 93 0.6 N 7 11 4 6 1018.5 1018.4 0.0
11/10:00pm 14.4 13.7 13.1 92 0.7 NE 9 15 5 8 1018.5 1018.4 0.0
11/09:30pm 14.7 13.6 13.1 90 0.9 NNE 11 19 6 10 1018.8 1018.6 0.0
11/09:00pm 11.1 11.1 9.7 91 0.7 CALM 0 6 0 3 1018.8 1018.6 0.0
11/08:30pm 12.2 12.1 9.4 83 1.4 CALM 0 0 0 0 1018.8 1018.6 0.0
11/08:00pm 12.5 12.4 9.3 81 1.7 CALM 0 0 0 0 1018.8 1018.6 0.0
11/07:30pm 11.6 11.1 7.7 77 1.9 CALM 0 0 0 0 1018.9 1018.7 0.0
11/07:00pm 13.7 13.2 9.2 74 2.3 ENE 2 7 1 4 1018.5 1018.4 0.0
11/06:30pm 13.7 12.0 8.3 70 2.8 E 7 11 4 6 1018.2 1018.1 0.0
11/06:00pm 14.4 12.7 7.7 64 3.4 ENE 6 7 3 4 1017.9 1017.8 0.0
11/05:30pm 17.0 15.6 8.7 58 4.4 NNE 6 9 3 5 1017.7 1017.6 0.0
11/05:00pm 19.2 17.3 9.1 52 5.4 N 9 13 5 7 1017.5 1017.4 0.0
11/04:30pm 20.8 18.3 9.7 49 6.1 NNW 13 17 7 9 1017.5 1017.4 0.0
11/04:00pm 20.2 17.3 9.7 51 5.7 N 15 19 8 10 1017.5 1017.4 0.0
11/03:30pm 21.8 18.5 9.7 46 6.7 NNW 17 24 9 13 1017.5 1017.4 0.0
11/03:00pm 20.5 17.3 10.0 51 5.8 NNW 17 22 9 12 1017.6 1017.5 0.0
11/02:30pm 21.9 19.8 11.3 51 6.0 NNW 13 20 7 11 1017.6 1017.5 0.0
11/02:00pm 20.7 17.0 10.2 51 5.8 NNW 20 30 11 16 1018.0 1017.9 0.0
11/01:30pm 20.3 16.9 10.4 53 5.5 N 19 35 10 19 1018.4 1018.3 0.0
11/01:00pm 20.8 17.6 11.2 54 5.4 N 19 26 10 14 1018.8 1018.6 0.0
11/12:30pm 20.4 17.7 11.6 57 5.0 N 17 24 9 13 1019.1 1018.9 0.0
11/12:00pm 20.9 18.0 12.3 58 4.9 NNW 19 24 10 13 1019.7 1019.6 0.0
11/11:30am 20.0 17.0 12.5 62 4.3 NNW 20 28 11 15 1020.3 1020.2 0.0

Other formats

Comma delimited format used in spreadsheet applications
http://www.bom.gov.au/fwo/IDQ60801/IDQ60801.94549.axf

JavaScript Object Notation format (JSON) in row-major order
http://www.bom.gov.au/fwo/IDQ60801/IDQ60801.94549.json

Data quality

Most of these data are generated automatically and are frequently updated. Quality checks on data are not normally performed. It is possible for incorrect values to appear. Refer to information at About Latest Weather Observations and please check the disclaimer before using these data.